sensor_id;sensor_type;location;lat;lon;timestamp;P1;durP1;ratioP1;P2;durP2;ratioP2
4434;SDS011;46552;52.150;8.428;2022-10-16T00:01:20;9.30;;;5.60;;
4434;SDS011;46552;52.150;8.428;2022-10-16T00:03:48;9.70;;;5.20;;
4434;SDS011;46552;52.150;8.428;2022-10-16T00:06:18;11.73;;;5.77;;
4434;SDS011;46552;52.150;8.428;2022-10-16T00:08:47;9.43;;;5.93;;
4434;SDS011;46552;52.150;8.428;2022-10-16T00:11:15;9.13;;;5.60;;
4434;SDS011;46552;52.150;8.428;2022-10-16T00:13:44;19.40;;;6.57;;
4434;SDS011;46552;52.150;8.428;2022-10-16T00:16:13;13.60;;;7.30;;
4434;SDS011;46552;52.150;8.428;2022-10-16T00:18:40;13.93;;;7.00;;
4434;SDS011;46552;52.150;8.428;2022-10-16T00:21:09;13.47;;;6.50;;
4434;SDS011;46552;52.150;8.428;2022-10-16T00:23:38;10.40;;;5.90;;
4434;SDS011;46552;52.150;8.428;2022-10-16T00:26:07;9.70;;;6.23;;
4434;SDS011;46552;52.150;8.428;2022-10-16T00:28:36;11.17;;;6.53;;
4434;SDS011;46552;52.150;8.428;2022-10-16T00:31:04;9.73;;;5.47;;
4434;SDS011;46552;52.150;8.428;2022-10-16T00:33:33;12.20;;;6.50;;
4434;SDS011;46552;52.150;8.428;2022-10-16T00:36:00;12.27;;;5.93;;
4434;SDS011;46552;52.150;8.428;2022-10-16T00:38:28;12.33;;;6.83;;
4434;SDS011;46552;52.150;8.428;2022-10-16T00:41:00;10.13;;;6.10;;
4434;SDS011;46552;52.150;8.428;2022-10-16T00:43:38;15.23;;;6.57;;
4434;SDS011;46552;52.150;8.428;2022-10-16T00:46:10;9.43;;;5.53;;
4434;SDS011;46552;52.150;8.428;2022-10-16T00:48:42;13.47;;;6.43;;
4434;SDS011;46552;52.150;8.428;2022-10-16T00:51:15;13.10;;;6.23;;
4434;SDS011;46552;52.150;8.428;2022-10-16T00:53:45;11.50;;;6.90;;
4434;SDS011;46552;52.150;8.428;2022-10-16T00:56:16;10.73;;;6.10;;
4434;SDS011;46552;52.150;8.428;2022-10-16T00:58:44;10.03;;;6.07;;
4434;SDS011;46552;52.150;8.428;2022-10-16T01:01:11;14.73;;;6.60;;
4434;SDS011;46552;52.150;8.428;2022-10-16T01:03:38;13.87;;;6.00;;
4434;SDS011;46552;52.150;8.428;2022-10-16T01:06:16;19.07;;;6.90;;
4434;SDS011;46552;52.150;8.428;2022-10-16T01:08:53;11.00;;;5.73;;
4434;SDS011;46552;52.150;8.428;2022-10-16T01:11:35;13.37;;;7.00;;
4434;SDS011;46552;52.150;8.428;2022-10-16T01:14:09;23.10;;;6.50;;
4434;SDS011;46552;52.150;8.428;2022-10-16T01:16:43;21.00;;;6.80;;
4434;SDS011;46552;52.150;8.428;2022-10-16T01:19:16;14.03;;;7.10;;
4434;SDS011;46552;52.150;8.428;2022-10-16T01:21:50;12.10;;;7.00;;
4434;SDS011;46552;52.150;8.428;2022-10-16T01:24:23;13.90;;;6.23;;
4434;SDS011;46552;52.150;8.428;2022-10-16T01:27:09;20.77;;;6.53;;
4434;SDS011;46552;52.150;8.428;2022-10-16T01:29:39;20.50;;;6.53;;
4434;SDS011;46552;52.150;8.428;2022-10-16T01:32:16;10.23;;;6.13;;
4434;SDS011;46552;52.150;8.428;2022-10-16T01:34:54;12.83;;;6.80;;
4434;SDS011;46552;52.150;8.428;2022-10-16T01:37:29;10.03;;;6.10;;
4434;SDS011;46552;52.150;8.428;2022-10-16T01:40:02;12.23;;;6.50;;
4434;SDS011;46552;52.150;8.428;2022-10-16T01:42:37;12.60;;;7.07;;
4434;SDS011;46552;52.150;8.428;2022-10-16T01:45:08;13.90;;;6.53;;
4434;SDS011;46552;52.150;8.428;2022-10-16T01:47:39;18.23;;;6.10;;
4434;SDS011;46552;52.150;8.428;2022-10-16T01:50:09;20.07;;;5.97;;
4434;SDS011;46552;52.150;8.428;2022-10-16T01:52:38;20.93;;;6.07;;
4434;SDS011;46552;52.150;8.428;2022-10-16T01:55:10;12.23;;;6.57;;
4434;SDS011;46552;52.150;8.428;2022-10-16T01:57:43;15.37;;;7.17;;
4434;SDS011;46552;52.150;8.428;2022-10-16T02:00:14;15.40;;;6.77;;
4434;SDS011;46552;52.150;8.428;2022-10-16T02:02:47;13.43;;;6.23;;
4434;SDS011;46552;52.150;8.428;2022-10-16T02:05:18;12.10;;;6.30;;
4434;SDS011;46552;52.150;8.428;2022-10-16T02:07:50;14.90;;;5.43;;
4434;SDS011;46552;52.150;8.428;2022-10-16T02:10:19;11.43;;;6.30;;
4434;SDS011;46552;52.150;8.428;2022-10-16T02:12:50;9.07;;;6.50;;
4434;SDS011;46552;52.150;8.428;2022-10-16T02:15:22;13.37;;;6.50;;
4434;SDS011;46552;52.150;8.428;2022-10-16T02:17:50;10.33;;;6.00;;
4434;SDS011;46552;52.150;8.428;2022-10-16T02:20:19;16.00;;;7.10;;
4434;SDS011;46552;52.150;8.428;2022-10-16T02:22:55;10.83;;;6.10;;
4434;SDS011;46552;52.150;8.428;2022-10-16T02:25:24;15.57;;;6.30;;
4434;SDS011;46552;52.150;8.428;2022-10-16T02:27:58;11.00;;;5.60;;
4434;SDS011;46552;52.150;8.428;2022-10-16T02:30:30;10.80;;;5.80;;
4434;SDS011;46552;52.150;8.428;2022-10-16T02:33:02;13.27;;;5.67;;
4434;SDS011;46552;52.150;8.428;2022-10-16T02:35:33;12.30;;;6.43;;
4434;SDS011;46552;52.150;8.428;2022-10-16T02:38:00;10.60;;;5.93;;
4434;SDS011;46552;52.150;8.428;2022-10-16T02:40:28;14.67;;;6.10;;
4434;SDS011;46552;52.150;8.428;2022-10-16T02:42:57;9.17;;;5.70;;
4434;SDS011;46552;52.150;8.428;2022-10-16T02:45:24;13.37;;;6.10;;
4434;SDS011;46552;52.150;8.428;2022-10-16T02:47:52;8.20;;;5.63;;
4434;SDS011;46552;52.150;8.428;2022-10-16T02:50:19;14.40;;;6.50;;
4434;SDS011;46552;52.150;8.428;2022-10-16T02:52:47;11.73;;;5.27;;
4434;SDS011;46552;52.150;8.428;2022-10-16T02:55:15;11.90;;;5.67;;
4434;SDS011;46552;52.150;8.428;2022-10-16T02:57:42;10.50;;;6.17;;
4434;SDS011;46552;52.150;8.428;2022-10-16T03:00:12;7.70;;;5.40;;
4434;SDS011;46552;52.150;8.428;2022-10-16T03:02:41;10.70;;;5.20;;
4434;SDS011;46552;52.150;8.428;2022-10-16T03:05:08;12.10;;;6.20;;
4434;SDS011;46552;52.150;8.428;2022-10-16T03:07:35;9.63;;;5.47;;
4434;SDS011;46552;52.150;8.428;2022-10-16T03:10:03;10.33;;;5.67;;
4434;SDS011;46552;52.150;8.428;2022-10-16T03:12:30;10.93;;;5.10;;
4434;SDS011;46552;52.150;8.428;2022-10-16T03:14:58;11.27;;;5.30;;
4434;SDS011;46552;52.150;8.428;2022-10-16T03:17:27;9.93;;;5.33;;
4434;SDS011;46552;52.150;8.428;2022-10-16T03:19:54;19.90;;;5.10;;
4434;SDS011;46552;52.150;8.428;2022-10-16T03:22:21;11.20;;;5.47;;
4434;SDS011;46552;52.150;8.428;2022-10-16T03:24:49;10.33;;;5.47;;
4434;SDS011;46552;52.150;8.428;2022-10-16T03:27:16;12.37;;;5.80;;
4434;SDS011;46552;52.150;8.428;2022-10-16T03:29:44;12.40;;;6.00;;
4434;SDS011;46552;52.150;8.428;2022-10-16T03:32:12;12.60;;;5.60;;
4434;SDS011;46552;52.150;8.428;2022-10-16T03:34:41;9.60;;;5.80;;
4434;SDS011;46552;52.150;8.428;2022-10-16T03:37:13;6.90;;;4.67;;
4434;SDS011;46552;52.150;8.428;2022-10-16T03:39:41;20.43;;;5.47;;
4434;SDS011;46552;52.150;8.428;2022-10-16T03:42:08;10.73;;;6.00;;
4434;SDS011;46552;52.150;8.428;2022-10-16T03:44:35;13.37;;;5.47;;
4434;SDS011;46552;52.150;8.428;2022-10-16T03:47:03;11.87;;;5.30;;
4434;SDS011;46552;52.150;8.428;2022-10-16T03:49:30;14.33;;;5.53;;
4434;SDS011;46552;52.150;8.428;2022-10-16T03:51:59;8.87;;;5.90;;
4434;SDS011;46552;52.150;8.428;2022-10-16T03:54:27;8.03;;;5.13;;
4434;SDS011;46552;52.150;8.428;2022-10-16T03:56:54;12.33;;;5.03;;
4434;SDS011;46552;52.150;8.428;2022-10-16T03:59:21;9.80;;;5.37;;
4434;SDS011;46552;52.150;8.428;2022-10-16T04:01:48;9.57;;;5.50;;
4434;SDS011;46552;52.150;8.428;2022-10-16T04:04:15;7.90;;;4.20;;
4434;SDS011;46552;52.150;8.428;2022-10-16T04:06:43;9.10;;;5.23;;
4434;SDS011;46552;52.150;8.428;2022-10-16T04:09:11;8.30;;;4.63;;
4434;SDS011;46552;52.150;8.428;2022-10-16T04:11:39;7.80;;;4.90;;
4434;SDS011;46552;52.150;8.428;2022-10-16T04:14:06;10.10;;;5.23;;
4434;SDS011;46552;52.150;8.428;2022-10-16T04:16:33;8.43;;;3.97;;
4434;SDS011;46552;52.150;8.428;2022-10-16T04:19:02;14.00;;;4.43;;
4434;SDS011;46552;52.150;8.428;2022-10-16T04:21:29;12.27;;;4.80;;
4434;SDS011;46552;52.150;8.428;2022-10-16T04:23:56;12.20;;;4.30;;
4434;SDS011;46552;52.150;8.428;2022-10-16T04:26:25;8.87;;;4.80;;
4434;SDS011;46552;52.150;8.428;2022-10-16T04:28:53;12.83;;;4.80;;
4434;SDS011;46552;52.150;8.428;2022-10-16T04:31:20;7.70;;;4.73;;
4434;SDS011;46552;52.150;8.428;2022-10-16T04:33:48;9.17;;;4.33;;
4434;SDS011;46552;52.150;8.428;2022-10-16T04:36:15;13.23;;;4.43;;
4434;SDS011;46552;52.150;8.428;2022-10-16T04:38:42;12.97;;;5.17;;
4434;SDS011;46552;52.150;8.428;2022-10-16T04:41:09;11.23;;;4.20;;
4434;SDS011;46552;52.150;8.428;2022-10-16T04:43:38;6.23;;;3.80;;
4434;SDS011;46552;52.150;8.428;2022-10-16T04:46:05;9.80;;;3.63;;
4434;SDS011;46552;52.150;8.428;2022-10-16T04:48:32;10.13;;;3.90;;
4434;SDS011;46552;52.150;8.428;2022-10-16T04:50:59;8.20;;;3.40;;
4434;SDS011;46552;52.150;8.428;2022-10-16T04:53:26;12.50;;;4.20;;
4434;SDS011;46552;52.150;8.428;2022-10-16T04:55:54;7.70;;;4.27;;
4434;SDS011;46552;52.150;8.428;2022-10-16T04:58:22;7.10;;;4.10;;
4434;SDS011;46552;52.150;8.428;2022-10-16T05:00:50;9.20;;;4.20;;
4434;SDS011;46552;52.150;8.428;2022-10-16T05:03:18;11.40;;;3.97;;
4434;SDS011;46552;52.150;8.428;2022-10-16T05:05:45;10.23;;;3.83;;
4434;SDS011;46552;52.150;8.428;2022-10-16T05:08:13;8.50;;;3.90;;
4434;SDS011;46552;52.150;8.428;2022-10-16T05:10:41;10.00;;;4.00;;
4434;SDS011;46552;52.150;8.428;2022-10-16T05:13:10;5.93;;;3.73;;
4434;SDS011;46552;52.150;8.428;2022-10-16T05:15:37;13.30;;;4.17;;
4434;SDS011;46552;52.150;8.428;2022-10-16T05:18:06;8.27;;;4.30;;
4434;SDS011;46552;52.150;8.428;2022-10-16T05:20:33;11.33;;;3.40;;
4434;SDS011;46552;52.150;8.428;2022-10-16T05:23:00;8.60;;;3.30;;
4434;SDS011;46552;52.150;8.428;2022-10-16T05:25:28;6.13;;;3.60;;
4434;SDS011;46552;52.150;8.428;2022-10-16T05:27:55;5.30;;;3.30;;
4434;SDS011;46552;52.150;8.428;2022-10-16T05:30:22;9.27;;;2.83;;
4434;SDS011;46552;52.150;8.428;2022-10-16T05:32:50;7.20;;;3.03;;
4434;SDS011;46552;52.150;8.428;2022-10-16T05:35:19;5.17;;;2.90;;
4434;SDS011;46552;52.150;8.428;2022-10-16T05:37:47;6.27;;;2.80;;
4434;SDS011;46552;52.150;8.428;2022-10-16T05:40:14;6.93;;;3.60;;
4434;SDS011;46552;52.150;8.428;2022-10-16T05:42:42;3.57;;;2.30;;
4434;SDS011;46552;52.150;8.428;2022-10-16T05:45:09;7.80;;;2.90;;
4434;SDS011;46552;52.150;8.428;2022-10-16T05:47:37;5.10;;;2.90;;
4434;SDS011;46552;52.150;8.428;2022-10-16T05:50:05;6.50;;;3.10;;
4434;SDS011;46552;52.150;8.428;2022-10-16T05:52:35;4.80;;;2.80;;
4434;SDS011;46552;52.150;8.428;2022-10-16T05:55:02;7.67;;;3.50;;
4434;SDS011;46552;52.150;8.428;2022-10-16T05:57:30;8.23;;;2.87;;
4434;SDS011;46552;52.150;8.428;2022-10-16T05:59:59;5.87;;;2.43;;
4434;SDS011;46552;52.150;8.428;2022-10-16T06:02:26;4.00;;;2.70;;
4434;SDS011;46552;52.150;8.428;2022-10-16T06:04:53;7.43;;;2.43;;
4434;SDS011;46552;52.150;8.428;2022-10-16T06:07:20;4.60;;;2.13;;
4434;SDS011;46552;52.150;8.428;2022-10-16T06:09:50;5.43;;;2.77;;
4434;SDS011;46552;52.150;8.428;2022-10-16T06:12:17;4.80;;;2.60;;
4434;SDS011;46552;52.150;8.428;2022-10-16T06:14:44;13.03;;;2.60;;
4434;SDS011;46552;52.150;8.428;2022-10-16T06:17:12;3.97;;;2.50;;
4434;SDS011;46552;52.150;8.428;2022-10-16T06:19:41;6.07;;;2.23;;
4434;SDS011;46552;52.150;8.428;2022-10-16T06:22:10;7.53;;;2.50;;
4434;SDS011;46552;52.150;8.428;2022-10-16T06:24:37;9.20;;;3.33;;
4434;SDS011;46552;52.150;8.428;2022-10-16T06:27:05;5.83;;;2.60;;
4434;SDS011;46552;52.150;8.428;2022-10-16T06:29:33;7.30;;;3.10;;
4434;SDS011;46552;52.150;8.428;2022-10-16T06:32:00;4.03;;;1.90;;
4434;SDS011;46552;52.150;8.428;2022-10-16T06:34:27;2.83;;;1.60;;
4434;SDS011;46552;52.150;8.428;2022-10-16T06:36:54;9.00;;;2.17;;
4434;SDS011;46552;52.150;8.428;2022-10-16T06:39:21;3.60;;;1.80;;
4434;SDS011;46552;52.150;8.428;2022-10-16T06:41:49;9.23;;;2.43;;
4434;SDS011;46552;52.150;8.428;2022-10-16T06:44:17;3.90;;;1.97;;
4434;SDS011;46552;52.150;8.428;2022-10-16T06:46:44;7.77;;;2.43;;
4434;SDS011;46552;52.150;8.428;2022-10-16T06:49:15;4.73;;;2.17;;
4434;SDS011;46552;52.150;8.428;2022-10-16T06:51:47;8.13;;;1.90;;
4434;SDS011;46552;52.150;8.428;2022-10-16T06:54:14;7.63;;;2.03;;
4434;SDS011;46552;52.150;8.428;2022-10-16T06:56:42;9.07;;;2.40;;
4434;SDS011;46552;52.150;8.428;2022-10-16T06:59:11;5.63;;;2.53;;
4434;SDS011;46552;52.150;8.428;2022-10-16T07:01:39;3.77;;;2.33;;
4434;SDS011;46552;52.150;8.428;2022-10-16T07:04:07;4.23;;;1.90;;
4434;SDS011;46552;52.150;8.428;2022-10-16T07:06:34;5.23;;;2.77;;
4434;SDS011;46552;52.150;8.428;2022-10-16T07:09:02;12.63;;;1.83;;
4434;SDS011;46552;52.150;8.428;2022-10-16T07:11:30;3.40;;;1.90;;
4434;SDS011;46552;52.150;8.428;2022-10-16T07:13:58;6.50;;;2.10;;
4434;SDS011;46552;52.150;8.428;2022-10-16T07:16:26;4.37;;;1.70;;
4434;SDS011;46552;52.150;8.428;2022-10-16T07:18:55;4.33;;;2.10;;
4434;SDS011;46552;52.150;8.428;2022-10-16T07:21:24;4.77;;;2.77;;
4434;SDS011;46552;52.150;8.428;2022-10-16T07:23:54;7.90;;;2.27;;
4434;SDS011;46552;52.150;8.428;2022-10-16T07:26:23;3.13;;;1.70;;
4434;SDS011;46552;52.150;8.428;2022-10-16T07:28:51;9.63;;;2.20;;
4434;SDS011;46552;52.150;8.428;2022-10-16T07:31:19;3.00;;;1.43;;
4434;SDS011;46552;52.150;8.428;2022-10-16T07:33:47;4.07;;;1.73;;
4434;SDS011;46552;52.150;8.428;2022-10-16T07:36:18;2.73;;;1.27;;
4434;SDS011;46552;52.150;8.428;2022-10-16T07:38:46;3.60;;;1.73;;
4434;SDS011;46552;52.150;8.428;2022-10-16T07:41:14;4.30;;;1.80;;
4434;SDS011;46552;52.150;8.428;2022-10-16T07:43:45;2.27;;;1.17;;
4434;SDS011;46552;52.150;8.428;2022-10-16T07:46:12;3.37;;;1.47;;
4434;SDS011;46552;52.150;8.428;2022-10-16T07:48:41;3.57;;;1.27;;
4434;SDS011;46552;52.150;8.428;2022-10-16T07:51:11;3.23;;;1.73;;
4434;SDS011;46552;52.150;8.428;2022-10-16T07:53:42;4.33;;;1.57;;
4434;SDS011;46552;52.150;8.428;2022-10-16T07:56:09;4.23;;;2.20;;
4434;SDS011;46552;52.150;8.428;2022-10-16T07:58:38;8.20;;;1.70;;
4434;SDS011;46552;52.150;8.428;2022-10-16T08:01:07;4.17;;;1.67;;
4434;SDS011;46552;52.150;8.428;2022-10-16T08:03:35;10.27;;;2.17;;
4434;SDS011;46552;52.150;8.428;2022-10-16T08:06:03;4.40;;;1.40;;
4434;SDS011;46552;52.150;8.428;2022-10-16T08:08:31;4.23;;;1.33;;
4434;SDS011;46552;52.150;8.428;2022-10-16T08:11:00;6.40;;;2.13;;
4434;SDS011;46552;52.150;8.428;2022-10-16T08:13:28;3.60;;;1.50;;
4434;SDS011;46552;52.150;8.428;2022-10-16T08:15:56;3.70;;;1.40;;
4434;SDS011;46552;52.150;8.428;2022-10-16T08:18:23;3.07;;;1.57;;
4434;SDS011;46552;52.150;8.428;2022-10-16T08:20:54;6.50;;;1.93;;
4434;SDS011;46552;52.150;8.428;2022-10-16T08:23:22;4.97;;;1.93;;
4434;SDS011;46552;52.150;8.428;2022-10-16T08:25:50;2.83;;;1.20;;
4434;SDS011;46552;52.150;8.428;2022-10-16T08:28:21;4.30;;;1.60;;
4434;SDS011;46552;52.150;8.428;2022-10-16T08:30:49;5.30;;;1.63;;
4434;SDS011;46552;52.150;8.428;2022-10-16T08:33:16;2.90;;;1.37;;
4434;SDS011;46552;52.150;8.428;2022-10-16T08:35:49;3.83;;;1.53;;
4434;SDS011;46552;52.150;8.428;2022-10-16T08:38:18;7.23;;;1.50;;
4434;SDS011;46552;52.150;8.428;2022-10-16T08:40:46;3.47;;;1.47;;
4434;SDS011;46552;52.150;8.428;2022-10-16T08:46:20;4.37;;;1.60;;
4434;SDS011;46552;52.150;8.428;2022-10-16T08:48:55;2.80;;;1.30;;
4434;SDS011;46552;52.150;8.428;2022-10-16T08:51:26;7.00;;;2.00;;
4434;SDS011;46552;52.150;8.428;2022-10-16T08:53:56;3.10;;;1.50;;
4434;SDS011;46552;52.150;8.428;2022-10-16T08:56:25;4.43;;;1.00;;
4434;SDS011;46552;52.150;8.428;2022-10-16T08:58:53;5.73;;;1.70;;
4434;SDS011;46552;52.150;8.428;2022-10-16T09:01:21;3.80;;;1.30;;
4434;SDS011;46552;52.150;8.428;2022-10-16T09:03:55;4.57;;;1.23;;
4434;SDS011;46552;52.150;8.428;2022-10-16T09:06:42;6.30;;;1.40;;
4434;SDS011;46552;52.150;8.428;2022-10-16T09:12:16;5.80;;;1.80;;
4434;SDS011;46552;52.150;8.428;2022-10-16T09:14:50;7.60;;;2.00;;
4434;SDS011;46552;52.150;8.428;2022-10-16T09:17:31;4.40;;;1.60;;
4434;SDS011;46552;52.150;8.428;2022-10-16T09:20:12;9.00;;;1.67;;
4434;SDS011;46552;52.150;8.428;2022-10-16T09:22:45;5.33;;;2.10;;
4434;SDS011;46552;52.150;8.428;2022-10-16T09:25:13;5.70;;;1.57;;
4434;SDS011;46552;52.150;8.428;2022-10-16T09:27:42;5.03;;;1.70;;
4434;SDS011;46552;52.150;8.428;2022-10-16T09:30:15;3.53;;;1.20;;
4434;SDS011;46552;52.150;8.428;2022-10-16T09:32:44;3.40;;;1.30;;
4434;SDS011;46552;52.150;8.428;2022-10-16T09:35:16;6.03;;;1.77;;
4434;SDS011;46552;52.150;8.428;2022-10-16T09:37:46;4.37;;;1.60;;
4434;SDS011;46552;52.150;8.428;2022-10-16T09:40:24;7.43;;;1.53;;
4434;SDS011;46552;52.150;8.428;2022-10-16T09:42:53;5.00;;;1.60;;
4434;SDS011;46552;52.150;8.428;2022-10-16T09:45:26;3.43;;;1.10;;
4434;SDS011;46552;52.150;8.428;2022-10-16T09:47:53;5.60;;;1.30;;
4434;SDS011;46552;52.150;8.428;2022-10-16T09:50:22;4.07;;;1.60;;
4434;SDS011;46552;52.150;8.428;2022-10-16T09:53:02;2.53;;;1.23;;
4434;SDS011;46552;52.150;8.428;2022-10-16T09:55:32;3.57;;;1.30;;
4434;SDS011;46552;52.150;8.428;2022-10-16T09:57:58;5.10;;;1.70;;
4434;SDS011;46552;52.150;8.428;2022-10-16T10:00:27;3.87;;;1.40;;
4434;SDS011;46552;52.150;8.428;2022-10-16T10:02:55;5.10;;;1.93;;
4434;SDS011;46552;52.150;8.428;2022-10-16T10:05:22;8.30;;;1.40;;
4434;SDS011;46552;52.150;8.428;2022-10-16T10:07:54;5.27;;;1.60;;
4434;SDS011;46552;52.150;8.428;2022-10-16T10:10:23;4.83;;;1.37;;
4434;SDS011;46552;52.150;8.428;2022-10-16T10:12:52;6.03;;;1.20;;
4434;SDS011;46552;52.150;8.428;2022-10-16T10:15:20;3.30;;;1.37;;
4434;SDS011;46552;52.150;8.428;2022-10-16T10:17:51;4.40;;;1.40;;
4434;SDS011;46552;52.150;8.428;2022-10-16T10:20:24;3.80;;;0.83;;
4434;SDS011;46552;52.150;8.428;2022-10-16T10:22:53;5.00;;;0.77;;
4434;SDS011;46552;52.150;8.428;2022-10-16T10:25:34;6.13;;;1.20;;
4434;SDS011;46552;52.150;8.428;2022-10-16T10:28:20;9.80;;;1.13;;
4434;SDS011;46552;52.150;8.428;2022-10-16T10:31:00;3.37;;;1.50;;
4434;SDS011;46552;52.150;8.428;2022-10-16T10:33:37;4.90;;;1.20;;
4434;SDS011;46552;52.150;8.428;2022-10-16T10:36:14;3.50;;;1.20;;
4434;SDS011;46552;52.150;8.428;2022-10-16T10:38:50;3.63;;;1.27;;
4434;SDS011;46552;52.150;8.428;2022-10-16T10:41:33;3.90;;;1.20;;
4434;SDS011;46552;52.150;8.428;2022-10-16T10:44:29;2.73;;;0.90;;
4434;SDS011;46552;52.150;8.428;2022-10-16T10:47:06;6.97;;;1.57;;
4434;SDS011;46552;52.150;8.428;2022-10-16T10:49:46;2.90;;;1.20;;
4434;SDS011;46552;52.150;8.428;2022-10-16T10:52:29;3.47;;;1.10;;
4434;SDS011;46552;52.150;8.428;2022-10-16T10:55:10;4.80;;;1.60;;
4434;SDS011;46552;52.150;8.428;2022-10-16T10:57:52;6.13;;;1.70;;
4434;SDS011;46552;52.150;8.428;2022-10-16T11:00:33;6.47;;;1.40;;
4434;SDS011;46552;52.150;8.428;2022-10-16T11:06:10;4.77;;;1.33;;
4434;SDS011;46552;52.150;8.428;2022-10-16T11:08:43;3.33;;;1.10;;
4434;SDS011;46552;52.150;8.428;2022-10-16T11:11:16;10.03;;;1.40;;
4434;SDS011;46552;52.150;8.428;2022-10-16T11:13:51;4.63;;;1.30;;
4434;SDS011;46552;52.150;8.428;2022-10-16T11:16:26;6.67;;;1.70;;
4434;SDS011;46552;52.150;8.428;2022-10-16T11:18:56;4.63;;;1.63;;
4434;SDS011;46552;52.150;8.428;2022-10-16T11:21:30;5.10;;;1.33;;
4434;SDS011;46552;52.150;8.428;2022-10-16T11:24:04;5.33;;;1.40;;
4434;SDS011;46552;52.150;8.428;2022-10-16T11:26:39;4.33;;;1.03;;
4434;SDS011;46552;52.150;8.428;2022-10-16T11:29:10;6.50;;;1.43;;
4434;SDS011;46552;52.150;8.428;2022-10-16T11:31:45;2.37;;;1.00;;
4434;SDS011;46552;52.150;8.428;2022-10-16T11:34:17;8.07;;;0.93;;
4434;SDS011;46552;52.150;8.428;2022-10-16T11:36:56;3.43;;;1.00;;
4434;SDS011;46552;52.150;8.428;2022-10-16T11:39:26;5.87;;;1.60;;
4434;SDS011;46552;52.150;8.428;2022-10-16T11:41:55;4.80;;;1.30;;
4434;SDS011;46552;52.150;8.428;2022-10-16T11:44:35;4.63;;;1.10;;
4434;SDS011;46552;52.150;8.428;2022-10-16T11:47:13;19.40;;;1.73;;
4434;SDS011;46552;52.150;8.428;2022-10-16T11:49:57;4.70;;;1.17;;
4434;SDS011;46552;52.150;8.428;2022-10-16T11:52:30;4.60;;;1.33;;
4434;SDS011;46552;52.150;8.428;2022-10-16T11:55:12;5.40;;;1.73;;
4434;SDS011;46552;52.150;8.428;2022-10-16T11:57:45;3.30;;;1.47;;
4434;SDS011;46552;52.150;8.428;2022-10-16T12:00:19;3.23;;;1.40;;
4434;SDS011;46552;52.150;8.428;2022-10-16T12:02:52;7.60;;;1.53;;
4434;SDS011;46552;52.150;8.428;2022-10-16T12:05:27;6.30;;;1.70;;
4434;SDS011;46552;52.150;8.428;2022-10-16T12:08:05;5.20;;;1.43;;
4434;SDS011;46552;52.150;8.428;2022-10-16T12:10:36;5.17;;;2.07;;
4434;SDS011;46552;52.150;8.428;2022-10-16T12:13:05;5.67;;;1.73;;
4434;SDS011;46552;52.150;8.428;2022-10-16T12:15:47;6.30;;;1.90;;
4434;SDS011;46552;52.150;8.428;2022-10-16T12:18:20;6.07;;;1.73;;
4434;SDS011;46552;52.150;8.428;2022-10-16T12:20:54;5.10;;;2.07;;
4434;SDS011;46552;52.150;8.428;2022-10-16T12:23:27;7.30;;;1.77;;
4434;SDS011;46552;52.150;8.428;2022-10-16T12:25:55;5.80;;;2.07;;
4434;SDS011;46552;52.150;8.428;2022-10-16T12:28:26;5.67;;;1.90;;
4434;SDS011;46552;52.150;8.428;2022-10-16T12:30:55;4.60;;;1.60;;
4434;SDS011;46552;52.150;8.428;2022-10-16T12:33:25;7.00;;;2.03;;
4434;SDS011;46552;52.150;8.428;2022-10-16T12:35:54;7.03;;;2.43;;
4434;SDS011;46552;52.150;8.428;2022-10-16T12:38:25;6.20;;;1.70;;
4434;SDS011;46552;52.150;8.428;2022-10-16T12:40:59;6.50;;;1.73;;
4434;SDS011;46552;52.150;8.428;2022-10-16T12:43:39;5.20;;;1.27;;
4434;SDS011;46552;52.150;8.428;2022-10-16T12:46:22;3.30;;;1.17;;
4434;SDS011;46552;52.150;8.428;2022-10-16T12:49:04;3.57;;;1.33;;
4434;SDS011;46552;52.150;8.428;2022-10-16T12:51:34;3.80;;;1.20;;
4434;SDS011;46552;52.150;8.428;2022-10-16T12:54:04;4.97;;;1.17;;
4434;SDS011;46552;52.150;8.428;2022-10-16T12:56:41;5.00;;;1.30;;
4434;SDS011;46552;52.150;8.428;2022-10-16T12:59:18;2.80;;;0.87;;
4434;SDS011;46552;52.150;8.428;2022-10-16T13:02:03;7.70;;;1.43;;
4434;SDS011;46552;52.150;8.428;2022-10-16T13:04:45;4.57;;;1.10;;
4434;SDS011;46552;52.150;8.428;2022-10-16T13:07:28;3.00;;;1.23;;
4434;SDS011;46552;52.150;8.428;2022-10-16T13:10:13;2.93;;;1.00;;
4434;SDS011;46552;52.150;8.428;2022-10-16T13:12:58;7.37;;;1.00;;
4434;SDS011;46552;52.150;8.428;2022-10-16T13:15:54;3.53;;;0.87;;
4434;SDS011;46552;52.150;8.428;2022-10-16T13:18:32;3.70;;;1.10;;
4434;SDS011;46552;52.150;8.428;2022-10-16T13:21:18;4.97;;;0.90;;
4434;SDS011;46552;52.150;8.428;2022-10-16T13:23:57;2.53;;;0.90;;
4434;SDS011;46552;52.150;8.428;2022-10-16T13:26:31;2.63;;;0.60;;
4434;SDS011;46552;52.150;8.428;2022-10-16T13:29:06;2.87;;;1.00;;
4434;SDS011;46552;52.150;8.428;2022-10-16T13:31:33;3.07;;;0.90;;
4434;SDS011;46552;52.150;8.428;2022-10-16T13:34:04;3.57;;;1.10;;
4434;SDS011;46552;52.150;8.428;2022-10-16T13:36:43;4.70;;;1.63;;
4434;SDS011;46552;52.150;8.428;2022-10-16T13:39:13;4.13;;;1.10;;
4434;SDS011;46552;52.150;8.428;2022-10-16T13:41:43;9.80;;;1.60;;
4434;SDS011;46552;52.150;8.428;2022-10-16T13:44:12;5.10;;;0.93;;
4434;SDS011;46552;52.150;8.428;2022-10-16T13:46:42;2.37;;;0.80;;
4434;SDS011;46552;52.150;8.428;2022-10-16T13:49:13;3.90;;;0.80;;
4434;SDS011;46552;52.150;8.428;2022-10-16T13:51:42;8.87;;;1.17;;
4434;SDS011;46552;52.150;8.428;2022-10-16T13:54:20;4.60;;;1.13;;
4434;SDS011;46552;52.150;8.428;2022-10-16T13:56:49;6.53;;;0.97;;
4434;SDS011;46552;52.150;8.428;2022-10-16T13:59:23;8.13;;;0.90;;
4434;SDS011;46552;52.150;8.428;2022-10-16T14:01:51;4.43;;;0.90;;
4434;SDS011;46552;52.150;8.428;2022-10-16T14:04:21;1.67;;;0.70;;
4434;SDS011;46552;52.150;8.428;2022-10-16T14:06:50;3.07;;;1.20;;
4434;SDS011;46552;52.150;8.428;2022-10-16T14:09:20;7.53;;;1.37;;
4434;SDS011;46552;52.150;8.428;2022-10-16T14:11:53;3.63;;;1.10;;
4434;SDS011;46552;52.150;8.428;2022-10-16T14:14:24;4.10;;;1.13;;
4434;SDS011;46552;52.150;8.428;2022-10-16T14:16:53;7.40;;;1.30;;
4434;SDS011;46552;52.150;8.428;2022-10-16T14:19:21;3.83;;;1.47;;
4434;SDS011;46552;52.150;8.428;2022-10-16T14:21:50;5.53;;;1.33;;
4434;SDS011;46552;52.150;8.428;2022-10-16T14:24:25;2.37;;;1.20;;
4434;SDS011;46552;52.150;8.428;2022-10-16T14:26:58;4.13;;;1.47;;
4434;SDS011;46552;52.150;8.428;2022-10-16T14:29:26;9.63;;;1.00;;
4434;SDS011;46552;52.150;8.428;2022-10-16T14:31:55;6.80;;;1.33;;
4434;SDS011;46552;52.150;8.428;2022-10-16T14:34:28;2.57;;;1.00;;
4434;SDS011;46552;52.150;8.428;2022-10-16T14:36:58;4.80;;;1.73;;
4434;SDS011;46552;52.150;8.428;2022-10-16T14:39:29;3.83;;;1.10;;
4434;SDS011;46552;52.150;8.428;2022-10-16T14:41:58;6.00;;;1.30;;
4434;SDS011;46552;52.150;8.428;2022-10-16T14:44:27;6.50;;;1.20;;
4434;SDS011;46552;52.150;8.428;2022-10-16T14:46:57;5.17;;;1.27;;
4434;SDS011;46552;52.150;8.428;2022-10-16T14:49:25;5.23;;;1.50;;
4434;SDS011;46552;52.150;8.428;2022-10-16T14:51:53;2.10;;;0.97;;
4434;SDS011;46552;52.150;8.428;2022-10-16T14:54:20;3.20;;;1.47;;
4434;SDS011;46552;52.150;8.428;2022-10-16T14:56:50;5.10;;;1.47;;
4434;SDS011;46552;52.150;8.428;2022-10-16T14:59:22;3.60;;;1.47;;
4434;SDS011;46552;52.150;8.428;2022-10-16T15:01:54;3.50;;;1.73;;
4434;SDS011;46552;52.150;8.428;2022-10-16T15:04:21;5.23;;;2.00;;
4434;SDS011;46552;52.150;8.428;2022-10-16T15:06:48;4.63;;;1.43;;
4434;SDS011;46552;52.150;8.428;2022-10-16T15:09:16;3.30;;;1.40;;
4434;SDS011;46552;52.150;8.428;2022-10-16T15:11:43;6.30;;;1.97;;
4434;SDS011;46552;52.150;8.428;2022-10-16T15:14:12;6.90;;;1.53;;
4434;SDS011;46552;52.150;8.428;2022-10-16T15:16:41;11.90;;;1.97;;
4434;SDS011;46552;52.150;8.428;2022-10-16T15:19:08;4.10;;;1.50;;
4434;SDS011;46552;52.150;8.428;2022-10-16T15:21:36;4.43;;;1.70;;
4434;SDS011;46552;52.150;8.428;2022-10-16T15:24:05;5.10;;;1.90;;
4434;SDS011;46552;52.150;8.428;2022-10-16T15:26:37;13.03;;;1.87;;
4434;SDS011;46552;52.150;8.428;2022-10-16T15:29:06;5.00;;;1.90;;